sensor_id;sensor_type;location;lat;lon;timestamp;P1;durP1;ratioP1;P2;durP2;ratioP2
65757;SDS011;52495;52.208;5.158;2024-02-23T00:00:06;8.07;;;1.83;;
65757;SDS011;52495;52.208;5.158;2024-02-23T00:02:36;7.72;;;2.03;;
65757;SDS011;52495;52.208;5.158;2024-02-23T00:05:02;8.00;;;2.70;;
65757;SDS011;52495;52.208;5.158;2024-02-23T00:07:30;13.25;;;2.13;;
65757;SDS011;52495;52.208;5.158;2024-02-23T00:09:58;11.73;;;2.50;;
65757;SDS011;52495;52.208;5.158;2024-02-23T00:12:25;10.23;;;3.15;;
65757;SDS011;52495;52.208;5.158;2024-02-23T00:14:51;6.75;;;2.13;;
65757;SDS011;52495;52.208;5.158;2024-02-23T00:17:18;11.43;;;2.22;;
65757;SDS011;52495;52.208;5.158;2024-02-23T00:19:45;9.98;;;2.15;;
65757;SDS011;52495;52.208;5.158;2024-02-23T00:22:12;12.95;;;1.60;;
65757;SDS011;52495;52.208;5.158;2024-02-23T00:24:39;15.45;;;2.63;;
65757;SDS011;52495;52.208;5.158;2024-02-23T00:27:08;9.30;;;1.83;;
65757;SDS011;52495;52.208;5.158;2024-02-23T00:29:35;6.70;;;2.17;;
65757;SDS011;52495;52.208;5.158;2024-02-23T00:32:02;8.45;;;1.90;;
65757;SDS011;52495;52.208;5.158;2024-02-23T00:34:30;7.28;;;1.90;;
65757;SDS011;52495;52.208;5.158;2024-02-23T00:36:57;11.43;;;2.35;;
65757;SDS011;52495;52.208;5.158;2024-02-23T00:39:24;9.60;;;2.67;;
65757;SDS011;52495;52.208;5.158;2024-02-23T00:41:50;12.23;;;2.17;;
65757;SDS011;52495;52.208;5.158;2024-02-23T00:44:18;9.50;;;1.88;;
65757;SDS011;52495;52.208;5.158;2024-02-23T00:46:45;11.20;;;2.33;;
65757;SDS011;52495;52.208;5.158;2024-02-23T00:49:12;11.75;;;2.40;;
65757;SDS011;52495;52.208;5.158;2024-02-23T00:51:39;9.90;;;2.47;;
65757;SDS011;52495;52.208;5.158;2024-02-23T00:54:06;20.15;;;2.70;;
65757;SDS011;52495;52.208;5.158;2024-02-23T00:56:33;9.93;;;1.98;;
65757;SDS011;52495;52.208;5.158;2024-02-23T00:59:00;9.52;;;2.42;;
65757;SDS011;52495;52.208;5.158;2024-02-23T01:01:28;12.18;;;1.90;;
65757;SDS011;52495;52.208;5.158;2024-02-23T01:03:57;11.00;;;1.90;;
65757;SDS011;52495;52.208;5.158;2024-02-23T01:06:24;9.05;;;2.13;;
65757;SDS011;52495;52.208;5.158;2024-02-23T01:08:52;6.43;;;1.73;;
65757;SDS011;52495;52.208;5.158;2024-02-23T01:11:19;8.63;;;1.95;;
65757;SDS011;52495;52.208;5.158;2024-02-23T01:13:46;8.98;;;1.92;;
65757;SDS011;52495;52.208;5.158;2024-02-23T01:16:12;7.10;;;1.92;;
65757;SDS011;52495;52.208;5.158;2024-02-23T01:18:41;4.65;;;1.40;;
65757;SDS011;52495;52.208;5.158;2024-02-23T01:21:08;19.30;;;2.53;;
65757;SDS011;52495;52.208;5.158;2024-02-23T01:23:34;10.43;;;2.17;;
65757;SDS011;52495;52.208;5.158;2024-02-23T01:26:01;8.48;;;1.85;;
65757;SDS011;52495;52.208;5.158;2024-02-23T01:28:28;7.65;;;1.55;;
65757;SDS011;52495;52.208;5.158;2024-02-23T01:30:55;13.57;;;2.47;;
65757;SDS011;52495;52.208;5.158;2024-02-23T01:33:21;6.28;;;1.42;;
65757;SDS011;52495;52.208;5.158;2024-02-23T01:35:49;7.35;;;2.00;;
65757;SDS011;52495;52.208;5.158;2024-02-23T01:38:16;7.80;;;2.10;;
65757;SDS011;52495;52.208;5.158;2024-02-23T01:40:46;7.70;;;1.73;;
65757;SDS011;52495;52.208;5.158;2024-02-23T01:43:13;7.53;;;1.80;;
65757;SDS011;52495;52.208;5.158;2024-02-23T01:45:40;7.97;;;1.98;;
65757;SDS011;52495;52.208;5.158;2024-02-23T01:48:07;8.93;;;1.83;;
65757;SDS011;52495;52.208;5.158;2024-02-23T01:50:34;7.60;;;1.65;;
65757;SDS011;52495;52.208;5.158;2024-02-23T01:53:02;12.32;;;1.98;;
65757;SDS011;52495;52.208;5.158;2024-02-23T01:55:29;12.07;;;2.00;;
65757;SDS011;52495;52.208;5.158;2024-02-23T01:57:57;7.22;;;2.70;;
65757;SDS011;52495;52.208;5.158;2024-02-23T02:00:24;5.57;;;2.25;;
65757;SDS011;52495;52.208;5.158;2024-02-23T02:02:53;5.43;;;1.17;;
65757;SDS011;52495;52.208;5.158;2024-02-23T02:05:21;7.93;;;2.05;;
65757;SDS011;52495;52.208;5.158;2024-02-23T02:07:49;5.82;;;1.55;;
65757;SDS011;52495;52.208;5.158;2024-02-23T02:10:20;6.40;;;1.85;;
65757;SDS011;52495;52.208;5.158;2024-02-23T02:12:47;4.95;;;1.50;;
65757;SDS011;52495;52.208;5.158;2024-02-23T02:15:14;6.20;;;1.42;;
65757;SDS011;52495;52.208;5.158;2024-02-23T02:17:41;8.15;;;2.42;;
65757;SDS011;52495;52.208;5.158;2024-02-23T02:20:08;6.78;;;1.17;;
65757;SDS011;52495;52.208;5.158;2024-02-23T02:22:38;5.63;;;1.30;;
65757;SDS011;52495;52.208;5.158;2024-02-23T02:25:06;7.53;;;2.15;;
65757;SDS011;52495;52.208;5.158;2024-02-23T02:27:34;7.78;;;1.40;;
65757;SDS011;52495;52.208;5.158;2024-02-23T02:30:01;7.75;;;1.65;;
65757;SDS011;52495;52.208;5.158;2024-02-23T02:32:28;8.23;;;1.40;;
65757;SDS011;52495;52.208;5.158;2024-02-23T02:34:55;5.82;;;1.67;;
65757;SDS011;52495;52.208;5.158;2024-02-23T02:37:21;9.63;;;1.60;;
65757;SDS011;52495;52.208;5.158;2024-02-23T02:39:48;5.18;;;1.30;;
65757;SDS011;52495;52.208;5.158;2024-02-23T02:42:15;7.15;;;1.80;;
65757;SDS011;52495;52.208;5.158;2024-02-23T02:44:43;9.48;;;1.88;;
65757;SDS011;52495;52.208;5.158;2024-02-23T02:47:10;9.20;;;2.05;;
65757;SDS011;52495;52.208;5.158;2024-02-23T02:49:38;10.20;;;1.85;;
65757;SDS011;52495;52.208;5.158;2024-02-23T02:52:06;13.32;;;1.83;;
65757;SDS011;52495;52.208;5.158;2024-02-23T02:54:33;5.07;;;1.35;;
65757;SDS011;52495;52.208;5.158;2024-02-23T02:57:00;10.85;;;2.00;;
65757;SDS011;52495;52.208;5.158;2024-02-23T02:59:27;9.18;;;1.92;;
65757;SDS011;52495;52.208;5.158;2024-02-23T03:01:55;11.90;;;1.90;;
65757;SDS011;52495;52.208;5.158;2024-02-23T03:04:22;14.05;;;2.17;;
65757;SDS011;52495;52.208;5.158;2024-02-23T03:06:49;6.88;;;1.58;;
65757;SDS011;52495;52.208;5.158;2024-02-23T03:09:15;6.78;;;1.90;;
65757;SDS011;52495;52.208;5.158;2024-02-23T03:11:42;4.05;;;1.10;;
65757;SDS011;52495;52.208;5.158;2024-02-23T03:14:09;8.50;;;2.08;;
65757;SDS011;52495;52.208;5.158;2024-02-23T03:16:36;7.38;;;2.30;;
65757;SDS011;52495;52.208;5.158;2024-02-23T03:19:04;8.85;;;1.85;;
65757;SDS011;52495;52.208;5.158;2024-02-23T03:21:32;10.98;;;1.83;;
65757;SDS011;52495;52.208;5.158;2024-02-23T03:23:59;10.27;;;2.20;;
65757;SDS011;52495;52.208;5.158;2024-02-23T03:26:26;6.82;;;1.85;;
65757;SDS011;52495;52.208;5.158;2024-02-23T03:28:53;5.90;;;2.15;;
65757;SDS011;52495;52.208;5.158;2024-02-23T03:31:19;8.73;;;1.90;;
65757;SDS011;52495;52.208;5.158;2024-02-23T03:33:46;10.00;;;1.38;;
65757;SDS011;52495;52.208;5.158;2024-02-23T03:36:14;4.60;;;1.80;;
65757;SDS011;52495;52.208;5.158;2024-02-23T03:38:41;8.57;;;2.55;;
65757;SDS011;52495;52.208;5.158;2024-02-23T03:41:08;4.47;;;1.60;;
65757;SDS011;52495;52.208;5.158;2024-02-23T03:43:34;11.95;;;2.30;;
65757;SDS011;52495;52.208;5.158;2024-02-23T03:46:03;10.35;;;2.00;;
65757;SDS011;52495;52.208;5.158;2024-02-23T03:48:30;4.95;;;1.52;;
65757;SDS011;52495;52.208;5.158;2024-02-23T03:50:57;7.25;;;2.38;;
65757;SDS011;52495;52.208;5.158;2024-02-23T03:53:25;9.15;;;2.00;;
65757;SDS011;52495;52.208;5.158;2024-02-23T03:55:52;7.63;;;1.83;;
65757;SDS011;52495;52.208;5.158;2024-02-23T03:58:19;5.95;;;1.60;;
65757;SDS011;52495;52.208;5.158;2024-02-23T04:00:45;9.10;;;1.77;;
65757;SDS011;52495;52.208;5.158;2024-02-23T04:03:12;6.53;;;1.65;;
65757;SDS011;52495;52.208;5.158;2024-02-23T04:05:39;9.65;;;2.40;;
65757;SDS011;52495;52.208;5.158;2024-02-23T04:08:06;12.45;;;2.63;;
65757;SDS011;52495;52.208;5.158;2024-02-23T04:10:35;8.95;;;2.10;;
65757;SDS011;52495;52.208;5.158;2024-02-23T04:13:02;8.30;;;1.70;;
65757;SDS011;52495;52.208;5.158;2024-02-23T04:15:29;6.57;;;1.90;;
65757;SDS011;52495;52.208;5.158;2024-02-23T04:17:56;9.85;;;1.83;;
65757;SDS011;52495;52.208;5.158;2024-02-23T04:20:23;8.88;;;2.58;;
65757;SDS011;52495;52.208;5.158;2024-02-23T04:22:50;9.30;;;1.50;;
65757;SDS011;52495;52.208;5.158;2024-02-23T04:25:16;6.63;;;1.65;;
65757;SDS011;52495;52.208;5.158;2024-02-23T04:27:44;10.43;;;1.85;;
65757;SDS011;52495;52.208;5.158;2024-02-23T04:30:12;10.85;;;1.77;;
65757;SDS011;52495;52.208;5.158;2024-02-23T04:32:39;6.55;;;1.80;;
65757;SDS011;52495;52.208;5.158;2024-02-23T04:35:06;9.90;;;2.22;;
65757;SDS011;52495;52.208;5.158;2024-02-23T04:37:33;5.13;;;2.00;;
65757;SDS011;52495;52.208;5.158;2024-02-23T04:40:00;6.68;;;2.08;;
65757;SDS011;52495;52.208;5.158;2024-02-23T04:42:26;8.20;;;2.10;;
65757;SDS011;52495;52.208;5.158;2024-02-23T04:44:55;5.05;;;1.70;;
65757;SDS011;52495;52.208;5.158;2024-02-23T04:47:21;10.30;;;2.45;;
65757;SDS011;52495;52.208;5.158;2024-02-23T04:49:48;7.90;;;2.72;;
65757;SDS011;52495;52.208;5.158;2024-02-23T04:52:15;6.88;;;2.17;;
65757;SDS011;52495;52.208;5.158;2024-02-23T04:54:42;8.82;;;2.08;;
65757;SDS011;52495;52.208;5.158;2024-02-23T04:57:09;5.53;;;2.05;;
65757;SDS011;52495;52.208;5.158;2024-02-23T04:59:35;6.22;;;2.50;;
65757;SDS011;52495;52.208;5.158;2024-02-23T05:02:04;6.57;;;2.15;;
65757;SDS011;52495;52.208;5.158;2024-02-23T05:04:33;8.13;;;1.88;;
65757;SDS011;52495;52.208;5.158;2024-02-23T05:07:00;8.82;;;1.98;;
65757;SDS011;52495;52.208;5.158;2024-02-23T05:09:26;10.40;;;2.85;;
65757;SDS011;52495;52.208;5.158;2024-02-23T05:11:54;4.57;;;2.25;;
65757;SDS011;52495;52.208;5.158;2024-02-23T05:14:21;11.73;;;2.63;;
65757;SDS011;52495;52.208;5.158;2024-02-23T05:16:48;11.57;;;2.53;;
65757;SDS011;52495;52.208;5.158;2024-02-23T05:19:16;6.15;;;2.13;;
65757;SDS011;52495;52.208;5.158;2024-02-23T05:21:42;5.75;;;2.63;;
65757;SDS011;52495;52.208;5.158;2024-02-23T05:24:10;8.43;;;2.78;;
65757;SDS011;52495;52.208;5.158;2024-02-23T05:26:37;8.52;;;2.55;;
65757;SDS011;52495;52.208;5.158;2024-02-23T05:29:04;10.55;;;2.60;;
65757;SDS011;52495;52.208;5.158;2024-02-23T05:31:43;4.07;;;1.98;;
65757;SDS011;52495;52.208;5.158;2024-02-23T05:34:11;9.88;;;2.40;;
65757;SDS011;52495;52.208;5.158;2024-02-23T05:36:39;10.88;;;2.88;;
65757;SDS011;52495;52.208;5.158;2024-02-23T05:39:06;7.28;;;2.08;;
65757;SDS011;52495;52.208;5.158;2024-02-23T05:41:34;12.73;;;2.80;;
65757;SDS011;52495;52.208;5.158;2024-02-23T05:44:02;8.35;;;2.63;;
65757;SDS011;52495;52.208;5.158;2024-02-23T05:46:30;4.13;;;2.28;;
65757;SDS011;52495;52.208;5.158;2024-02-23T05:48:57;6.95;;;2.70;;
65757;SDS011;52495;52.208;5.158;2024-02-23T05:51:24;9.68;;;2.65;;
65757;SDS011;52495;52.208;5.158;2024-02-23T05:53:52;9.43;;;2.55;;
65757;SDS011;52495;52.208;5.158;2024-02-23T05:56:19;6.25;;;2.78;;
65757;SDS011;52495;52.208;5.158;2024-02-23T05:58:46;8.63;;;2.80;;
65757;SDS011;52495;52.208;5.158;2024-02-23T06:01:12;4.78;;;2.63;;
65757;SDS011;52495;52.208;5.158;2024-02-23T06:03:40;8.93;;;2.92;;
65757;SDS011;52495;52.208;5.158;2024-02-23T06:06:06;7.55;;;3.05;;
65757;SDS011;52495;52.208;5.158;2024-02-23T06:08:33;7.35;;;3.60;;
65757;SDS011;52495;52.208;5.158;2024-02-23T06:11:02;8.30;;;3.63;;
65757;SDS011;52495;52.208;5.158;2024-02-23T06:13:29;5.15;;;3.35;;
65757;SDS011;52495;52.208;5.158;2024-02-23T06:15:56;6.68;;;3.20;;
65757;SDS011;52495;52.208;5.158;2024-02-23T06:18:23;7.30;;;3.33;;
65757;SDS011;52495;52.208;5.158;2024-02-23T06:20:49;11.07;;;3.20;;
65757;SDS011;52495;52.208;5.158;2024-02-23T06:23:16;5.88;;;3.60;;
65757;SDS011;52495;52.208;5.158;2024-02-23T06:25:43;8.00;;;2.90;;
65757;SDS011;52495;52.208;5.158;2024-02-23T06:28:12;5.57;;;2.60;;
65757;SDS011;52495;52.208;5.158;2024-02-23T06:30:38;10.23;;;2.97;;
65757;SDS011;52495;52.208;5.158;2024-02-23T06:33:05;6.75;;;2.80;;
65757;SDS011;52495;52.208;5.158;2024-02-23T06:35:32;5.60;;;2.65;;
65757;SDS011;52495;52.208;5.158;2024-02-23T06:37:59;5.80;;;2.55;;
65757;SDS011;52495;52.208;5.158;2024-02-23T06:40:25;8.77;;;2.75;;
65757;SDS011;52495;52.208;5.158;2024-02-23T06:42:52;9.93;;;2.40;;
65757;SDS011;52495;52.208;5.158;2024-02-23T06:45:20;9.60;;;2.80;;
65757;SDS011;52495;52.208;5.158;2024-02-23T06:47:50;6.13;;;2.75;;
65757;SDS011;52495;52.208;5.158;2024-02-23T06:50:17;3.88;;;2.10;;
65757;SDS011;52495;52.208;5.158;2024-02-23T06:52:44;5.40;;;2.63;;
65757;SDS011;52495;52.208;5.158;2024-02-23T06:55:13;6.50;;;2.60;;
65757;SDS011;52495;52.208;5.158;2024-02-23T06:57:40;7.53;;;2.50;;
65757;SDS011;52495;52.208;5.158;2024-02-23T07:00:07;7.47;;;3.17;;
65757;SDS011;52495;52.208;5.158;2024-02-23T07:02:36;9.77;;;2.45;;
65757;SDS011;52495;52.208;5.158;2024-02-23T07:05:03;5.15;;;2.03;;
65757;SDS011;52495;52.208;5.158;2024-02-23T07:07:30;5.43;;;2.28;;
65757;SDS011;52495;52.208;5.158;2024-02-23T07:10:00;4.32;;;2.03;;
65757;SDS011;52495;52.208;5.158;2024-02-23T07:12:27;4.97;;;1.95;;
65757;SDS011;52495;52.208;5.158;2024-02-23T07:14:54;7.15;;;2.20;;
65757;SDS011;52495;52.208;5.158;2024-02-23T07:17:21;5.50;;;2.20;;
65757;SDS011;52495;52.208;5.158;2024-02-23T07:19:49;7.47;;;2.63;;
65757;SDS011;52495;52.208;5.158;2024-02-23T07:22:15;7.25;;;2.08;;
65757;SDS011;52495;52.208;5.158;2024-02-23T07:24:43;7.50;;;2.20;;
65757;SDS011;52495;52.208;5.158;2024-02-23T07:27:10;5.68;;;2.30;;
65757;SDS011;52495;52.208;5.158;2024-02-23T07:29:36;5.35;;;2.00;;
65757;SDS011;52495;52.208;5.158;2024-02-23T07:32:03;10.23;;;2.00;;
65757;SDS011;52495;52.208;5.158;2024-02-23T07:34:31;7.90;;;1.90;;
65757;SDS011;52495;52.208;5.158;2024-02-23T07:36:59;6.03;;;1.73;;
65757;SDS011;52495;52.208;5.158;2024-02-23T07:39:26;4.78;;;2.13;;
65757;SDS011;52495;52.208;5.158;2024-02-23T07:41:52;4.18;;;1.45;;
65757;SDS011;52495;52.208;5.158;2024-02-23T07:44:19;4.60;;;1.67;;
65757;SDS011;52495;52.208;5.158;2024-02-23T07:46:46;9.75;;;2.25;;
65757;SDS011;52495;52.208;5.158;2024-02-23T07:49:13;5.97;;;1.80;;
65757;SDS011;52495;52.208;5.158;2024-02-23T07:51:39;7.95;;;2.25;;
65757;SDS011;52495;52.208;5.158;2024-02-23T07:54:08;7.57;;;1.90;;
65757;SDS011;52495;52.208;5.158;2024-02-23T07:56:34;6.65;;;2.03;;
65757;SDS011;52495;52.208;5.158;2024-02-23T07:59:01;6.28;;;1.70;;
65757;SDS011;52495;52.208;5.158;2024-02-23T08:01:29;6.10;;;1.30;;
65757;SDS011;52495;52.208;5.158;2024-02-23T08:03:55;7.72;;;2.03;;
65757;SDS011;52495;52.208;5.158;2024-02-23T08:06:23;3.90;;;1.30;;
65757;SDS011;52495;52.208;5.158;2024-02-23T08:08:51;6.18;;;1.63;;
65757;SDS011;52495;52.208;5.158;2024-02-23T08:11:20;6.38;;;1.33;;
65757;SDS011;52495;52.208;5.158;2024-02-23T08:13:46;6.28;;;1.77;;
65757;SDS011;52495;52.208;5.158;2024-02-23T08:16:15;8.30;;;1.85;;
65757;SDS011;52495;52.208;5.158;2024-02-23T08:18:42;6.30;;;1.80;;
65757;SDS011;52495;52.208;5.158;2024-02-23T08:21:09;6.63;;;1.63;;
65757;SDS011;52495;52.208;5.158;2024-02-23T08:23:36;6.70;;;1.70;;
65757;SDS011;52495;52.208;5.158;2024-02-23T08:26:03;9.60;;;1.88;;
65757;SDS011;52495;52.208;5.158;2024-02-23T08:28:31;5.68;;;1.70;;
65757;SDS011;52495;52.208;5.158;2024-02-23T08:30:57;5.18;;;1.80;;
65757;SDS011;52495;52.208;5.158;2024-02-23T08:33:24;7.22;;;1.90;;
65757;SDS011;52495;52.208;5.158;2024-02-23T08:35:52;6.35;;;2.10;;
65757;SDS011;52495;52.208;5.158;2024-02-23T08:38:18;11.05;;;1.63;;
65757;SDS011;52495;52.208;5.158;2024-02-23T08:40:45;8.07;;;2.97;;
65757;SDS011;52495;52.208;5.158;2024-02-23T08:43:13;9.00;;;1.70;;
65757;SDS011;52495;52.208;5.158;2024-02-23T08:45:41;9.10;;;1.98;;
65757;SDS011;52495;52.208;5.158;2024-02-23T08:48:08;6.38;;;1.70;;
65757;SDS011;52495;52.208;5.158;2024-02-23T08:50:34;7.82;;;2.28;;
65757;SDS011;52495;52.208;5.158;2024-02-23T08:53:03;10.85;;;2.33;;
65757;SDS011;52495;52.208;5.158;2024-02-23T08:55:30;7.55;;;2.35;;
65757;SDS011;52495;52.208;5.158;2024-02-23T08:57:58;5.28;;;2.10;;
65757;SDS011;52495;52.208;5.158;2024-02-23T09:00:25;6.38;;;1.70;;
65757;SDS011;52495;52.208;5.158;2024-02-23T09:02:53;4.90;;;1.92;;
65757;SDS011;52495;52.208;5.158;2024-02-23T09:05:20;6.65;;;1.70;;
65757;SDS011;52495;52.208;5.158;2024-02-23T09:07:46;7.68;;;2.10;;
65757;SDS011;52495;52.208;5.158;2024-02-23T09:10:13;10.52;;;2.00;;
65757;SDS011;52495;52.208;5.158;2024-02-23T09:12:40;6.50;;;2.15;;
65757;SDS011;52495;52.208;5.158;2024-02-23T09:15:07;7.65;;;2.25;;
65757;SDS011;52495;52.208;5.158;2024-02-23T09:17:34;6.97;;;1.75;;
65757;SDS011;52495;52.208;5.158;2024-02-23T09:20:04;6.10;;;1.88;;
65757;SDS011;52495;52.208;5.158;2024-02-23T09:22:32;8.25;;;2.33;;
65757;SDS011;52495;52.208;5.158;2024-02-23T09:24:59;5.70;;;2.10;;
65757;SDS011;52495;52.208;5.158;2024-02-23T09:27:26;11.48;;;2.38;;
65757;SDS011;52495;52.208;5.158;2024-02-23T09:29:52;9.90;;;2.70;;
65757;SDS011;52495;52.208;5.158;2024-02-23T09:32:19;8.32;;;2.17;;
65757;SDS011;52495;52.208;5.158;2024-02-23T09:34:46;8.13;;;2.10;;
65757;SDS011;52495;52.208;5.158;2024-02-23T09:37:14;6.32;;;2.13;;
65757;SDS011;52495;52.208;5.158;2024-02-23T09:39:42;8.07;;;2.53;;
65757;SDS011;52495;52.208;5.158;2024-02-23T09:42:09;7.68;;;2.17;;
65757;SDS011;52495;52.208;5.158;2024-02-23T09:44:37;7.28;;;1.95;;
65757;SDS011;52495;52.208;5.158;2024-02-23T09:47:04;6.82;;;2.22;;
65757;SDS011;52495;52.208;5.158;2024-02-23T09:49:36;7.53;;;1.90;;
65757;SDS011;52495;52.208;5.158;2024-02-23T09:52:05;9.68;;;2.75;;
65757;SDS011;52495;52.208;5.158;2024-02-23T09:54:35;4.45;;;1.58;;
65757;SDS011;52495;52.208;5.158;2024-02-23T09:57:04;3.38;;;1.60;;
65757;SDS011;52495;52.208;5.158;2024-02-23T09:59:34;7.78;;;1.70;;
65757;SDS011;52495;52.208;5.158;2024-02-23T10:02:01;5.63;;;2.17;;
65757;SDS011;52495;52.208;5.158;2024-02-23T10:04:29;6.05;;;2.00;;
65757;SDS011;52495;52.208;5.158;2024-02-23T10:06:56;5.20;;;1.60;;
65757;SDS011;52495;52.208;5.158;2024-02-23T10:09:23;6.65;;;1.92;;
65757;SDS011;52495;52.208;5.158;2024-02-23T10:11:53;3.63;;;1.45;;
65757;SDS011;52495;52.208;5.158;2024-02-23T10:14:19;5.93;;;2.10;;
65757;SDS011;52495;52.208;5.158;2024-02-23T10:16:46;4.95;;;1.70;;
65757;SDS011;52495;52.208;5.158;2024-02-23T10:19:13;9.63;;;2.13;;
65757;SDS011;52495;52.208;5.158;2024-02-23T10:21:40;6.40;;;1.75;;
65757;SDS011;52495;52.208;5.158;2024-02-23T10:24:07;6.18;;;1.70;;
65757;SDS011;52495;52.208;5.158;2024-02-23T10:26:33;5.43;;;2.00;;
65757;SDS011;52495;52.208;5.158;2024-02-23T10:29:01;9.38;;;2.40;;
65757;SDS011;52495;52.208;5.158;2024-02-23T10:31:28;4.25;;;1.65;;
65757;SDS011;52495;52.208;5.158;2024-02-23T10:34:00;4.90;;;1.90;;
65757;SDS011;52495;52.208;5.158;2024-02-23T10:36:34;4.60;;;2.20;;
65757;SDS011;52495;52.208;5.158;2024-02-23T10:39:04;5.80;;;2.47;;
65757;SDS011;52495;52.208;5.158;2024-02-23T10:41:35;9.95;;;2.92;;
65757;SDS011;52495;52.208;5.158;2024-02-23T10:44:03;8.13;;;2.30;;
65757;SDS011;52495;52.208;5.158;2024-02-23T10:46:33;7.80;;;2.10;;
65757;SDS011;52495;52.208;5.158;2024-02-23T10:49:01;10.80;;;2.53;;
65757;SDS011;52495;52.208;5.158;2024-02-23T10:51:28;5.65;;;2.00;;
65757;SDS011;52495;52.208;5.158;2024-02-23T10:53:55;7.70;;;1.98;;
65757;SDS011;52495;52.208;5.158;2024-02-23T10:56:23;5.22;;;1.92;;
65757;SDS011;52495;52.208;5.158;2024-02-23T10:58:52;5.13;;;1.77;;
65757;SDS011;52495;52.208;5.158;2024-02-23T11:01:21;3.80;;;1.90;;
65757;SDS011;52495;52.208;5.158;2024-02-23T11:03:50;9.77;;;2.22;;
65757;SDS011;52495;52.208;5.158;2024-02-23T11:06:18;6.50;;;2.08;;
65757;SDS011;52495;52.208;5.158;2024-02-23T11:08:47;5.32;;;2.10;;
65757;SDS011;52495;52.208;5.158;2024-02-23T11:11:16;7.38;;;2.00;;
65757;SDS011;52495;52.208;5.158;2024-02-23T11:13:43;9.73;;;3.15;;
65757;SDS011;52495;52.208;5.158;2024-02-23T11:16:11;8.90;;;1.85;;
65757;SDS011;52495;52.208;5.158;2024-02-23T11:18:48;4.30;;;1.77;;
65757;SDS011;52495;52.208;5.158;2024-02-23T11:21:15;5.15;;;2.10;;
65757;SDS011;52495;52.208;5.158;2024-02-23T11:23:42;6.65;;;2.10;;
65757;SDS011;52495;52.208;5.158;2024-02-23T11:26:10;7.38;;;1.85;;
65757;SDS011;52495;52.208;5.158;2024-02-23T11:28:46;5.30;;;1.77;;
65757;SDS011;52495;52.208;5.158;2024-02-23T11:31:14;6.20;;;1.90;;
65757;SDS011;52495;52.208;5.158;2024-02-23T11:33:48;5.65;;;1.83;;
65757;SDS011;52495;52.208;5.158;2024-02-23T11:36:22;5.10;;;1.77;;
65757;SDS011;52495;52.208;5.158;2024-02-23T11:38:52;5.82;;;2.00;;
65757;SDS011;52495;52.208;5.158;2024-02-23T11:41:20;7.32;;;2.20;;
65757;SDS011;52495;52.208;5.158;2024-02-23T11:43:48;9.30;;;2.50;;
65757;SDS011;52495;52.208;5.158;2024-02-23T11:46:16;5.60;;;1.75;;
65757;SDS011;52495;52.208;5.158;2024-02-23T11:48:42;4.97;;;2.45;;
65757;SDS011;52495;52.208;5.158;2024-02-23T11:51:11;4.63;;;1.90;;
65757;SDS011;52495;52.208;5.158;2024-02-23T11:53:37;4.35;;;2.00;;
65757;SDS011;52495;52.208;5.158;2024-02-23T11:56:04;7.90;;;2.00;;
65757;SDS011;52495;52.208;5.158;2024-02-23T11:58:32;5.97;;;2.08;;
65757;SDS011;52495;52.208;5.158;2024-02-23T12:00:59;6.78;;;3.00;;
65757;SDS011;52495;52.208;5.158;2024-02-23T12:03:28;7.75;;;1.75;;
65757;SDS011;52495;52.208;5.158;2024-02-23T12:05:55;5.88;;;1.75;;
65757;SDS011;52495;52.208;5.158;2024-02-23T12:08:25;8.48;;;2.25;;
65757;SDS011;52495;52.208;5.158;2024-02-23T12:10:53;7.43;;;1.90;;
65757;SDS011;52495;52.208;5.158;2024-02-23T12:13:20;6.82;;;2.35;;
65757;SDS011;52495;52.208;5.158;2024-02-23T12:15:47;3.08;;;1.60;;
65757;SDS011;52495;52.208;5.158;2024-02-23T12:18:15;4.78;;;1.52;;
65757;SDS011;52495;52.208;5.158;2024-02-23T12:20:41;5.75;;;1.40;;
65757;SDS011;52495;52.208;5.158;2024-02-23T12:23:08;3.75;;;1.45;;
65757;SDS011;52495;52.208;5.158;2024-02-23T12:25:36;4.47;;;1.88;;
65757;SDS011;52495;52.208;5.158;2024-02-23T12:28:03;5.18;;;1.77;;
65757;SDS011;52495;52.208;5.158;2024-02-23T12:30:30;8.25;;;2.03;;
65757;SDS011;52495;52.208;5.158;2024-02-23T12:33:03;5.22;;;1.70;;
65757;SDS011;52495;52.208;5.158;2024-02-23T12:35:30;4.40;;;1.60;;
65757;SDS011;52495;52.208;5.158;2024-02-23T12:37:57;6.82;;;1.70;;
65757;SDS011;52495;52.208;5.158;2024-02-23T12:40:24;3.83;;;1.70;;
65757;SDS011;52495;52.208;5.158;2024-02-23T12:42:52;5.63;;;2.10;;
65757;SDS011;52495;52.208;5.158;2024-02-23T12:45:19;5.93;;;2.00;;
65757;SDS011;52495;52.208;5.158;2024-02-23T12:47:46;5.18;;;1.70;;
65757;SDS011;52495;52.208;5.158;2024-02-23T12:50:13;7.68;;;2.17;;
65757;SDS011;52495;52.208;5.158;2024-02-23T12:52:39;7.20;;;1.52;;
65757;SDS011;52495;52.208;5.158;2024-02-23T12:55:09;3.00;;;1.25;;
65757;SDS011;52495;52.208;5.158;2024-02-23T12:57:35;5.80;;;1.52;;
65757;SDS011;52495;52.208;5.158;2024-02-23T13:00:04;5.57;;;1.60;;
65757;SDS011;52495;52.208;5.158;2024-02-23T13:02:32;4.15;;;1.55;;
65757;SDS011;52495;52.208;5.158;2024-02-23T13:04:59;4.63;;;1.25;;
65757;SDS011;52495;52.208;5.158;2024-02-23T13:07:26;8.73;;;1.52;;
65757;SDS011;52495;52.208;5.158;2024-02-23T13:09:52;5.28;;;1.30;;
65757;SDS011;52495;52.208;5.158;2024-02-23T13:12:20;5.53;;;1.60;;
65757;SDS011;52495;52.208;5.158;2024-02-23T13:14:46;4.18;;;1.50;;
65757;SDS011;52495;52.208;5.158;2024-02-23T13:17:15;3.22;;;1.58;;
65757;SDS011;52495;52.208;5.158;2024-02-23T13:19:42;8.07;;;1.75;;
65757;SDS011;52495;52.208;5.158;2024-02-23T13:22:09;5.28;;;1.40;;
65757;SDS011;52495;52.208;5.158;2024-02-23T13:24:36;5.22;;;1.55;;
65757;SDS011;52495;52.208;5.158;2024-02-23T13:27:05;7.25;;;1.58;;
65757;SDS011;52495;52.208;5.158;2024-02-23T13:29:32;5.30;;;1.25;;
65757;SDS011;52495;52.208;5.158;2024-02-23T13:31:58;5.85;;;1.42;;
65757;SDS011;52495;52.208;5.158;2024-02-23T13:34:26;4.80;;;1.50;;
65757;SDS011;52495;52.208;5.158;2024-02-23T13:36:53;5.60;;;1.90;;
65757;SDS011;52495;52.208;5.158;2024-02-23T13:39:20;5.05;;;1.58;;
65757;SDS011;52495;52.208;5.158;2024-02-23T13:41:47;8.57;;;1.90;;
65757;SDS011;52495;52.208;5.158;2024-02-23T13:44:13;3.63;;;1.25;;
65757;SDS011;52495;52.208;5.158;2024-02-23T13:46:40;4.05;;;1.30;;
65757;SDS011;52495;52.208;5.158;2024-02-23T13:49:07;4.75;;;1.50;;
65757;SDS011;52495;52.208;5.158;2024-02-23T13:51:36;3.85;;;1.27;;
65757;SDS011;52495;52.208;5.158;2024-02-23T13:54:03;3.83;;;1.40;;
65757;SDS011;52495;52.208;5.158;2024-02-23T13:56:30;2.55;;;1.17;;
65757;SDS011;52495;52.208;5.158;2024-02-23T13:58:57;2.20;;;0.95;;
65757;SDS011;52495;52.208;5.158;2024-02-23T14:01:23;4.65;;;1.80;;
65757;SDS011;52495;52.208;5.158;2024-02-23T14:03:50;4.30;;;1.33;;
65757;SDS011;52495;52.208;5.158;2024-02-23T14:06:17;5.35;;;1.10;;
65757;SDS011;52495;52.208;5.158;2024-02-23T14:08:45;3.72;;;1.10;;
65757;SDS011;52495;52.208;5.158;2024-02-23T14:11:13;3.17;;;1.15;;
65757;SDS011;52495;52.208;5.158;2024-02-23T14:13:40;3.58;;;1.30;;
65757;SDS011;52495;52.208;5.158;2024-02-23T14:16:06;2.35;;;1.00;;
65757;SDS011;52495;52.208;5.158;2024-02-23T14:18:33;2.47;;;1.15;;
65757;SDS011;52495;52.208;5.158;2024-02-23T14:21:03;2.17;;;1.17;;
65757;SDS011;52495;52.208;5.158;2024-02-23T14:23:30;3.85;;;1.10;;
65757;SDS011;52495;52.208;5.158;2024-02-23T14:26:00;3.97;;;1.00;;
65757;SDS011;52495;52.208;5.158;2024-02-23T14:28:27;6.70;;;1.30;;
65757;SDS011;52495;52.208;5.158;2024-02-23T14:30:54;4.95;;;1.00;;
65757;SDS011;52495;52.208;5.158;2024-02-23T14:33:21;3.92;;;1.40;;
65757;SDS011;52495;52.208;5.158;2024-02-23T14:35:47;6.07;;;1.20;;
65757;SDS011;52495;52.208;5.158;2024-02-23T14:38:14;2.88;;;1.38;;
65757;SDS011;52495;52.208;5.158;2024-02-23T14:40:41;4.20;;;1.20;;
65757;SDS011;52495;52.208;5.158;2024-02-23T14:43:11;3.15;;;1.58;;
65757;SDS011;52495;52.208;5.158;2024-02-23T14:45:38;3.45;;;1.38;;